Time;durP1;ratioP1;P1;durP2;ratioP2;P2;SDS_P1;SDS_P2;PMS_P1;PMS_P2;Temp;Humidity;BMP_temperature;BMP_pressure;BME280_temperature;BME280_humidity;BME280_pressure;Samples;Min_cycle;Max_cycle;Signal;HPM_P1;HPM_P2
2023/07/30 00:02:20;;;;;;;0.00;0.00;;;;;;;20.04;100.00;99459.44;5043427;28;20036;-94
2023/07/30 00:04:46;;;;;;;0.03;0.03;;;;;;;20.21;100.00;99474.25;5007488;28;20033;-92
2023/07/30 00:07:12;;;;;;;0.10;0.10;;;;;;;20.28;100.00;99487.78;5025891;28;20026;-94
2023/07/30 00:09:38;;;;;;;0.10;0.10;;;;;;;20.31;100.00;99475.50;4991141;28;20037;-92
2023/07/30 00:12:05;;;;;;;0.00;0.00;;;;;;;20.33;100.00;99472.94;4992988;28;20034;-92
2023/07/30 00:14:31;;;;;;;0.10;0.10;;;;;;;20.26;100.00;99459.34;5008091;28;20033;-92
2023/07/30 00:16:57;;;;;;;0.35;0.20;;;;;;;20.16;100.00;99444.03;5018322;28;20527;-93
2023/07/30 00:19:22;;;;;;;0.00;0.00;;;;;;;20.22;100.00;99452.50;5022195;28;20566;-93
2023/07/30 00:21:48;;;;;;;2.50;0.32;;;;;;;20.16;100.00;99441.22;5002303;28;20042;-92
2023/07/30 00:24:13;;;;;;;0.40;0.40;;;;;;;20.09;100.00;99424.88;5021202;28;20026;-93
2023/07/30 00:26:39;;;;;;;0.05;0.05;;;;;;;20.24;100.00;99447.84;5008875;28;20550;-94
2023/07/30 00:29:05;;;;;;;0.20;0.20;;;;;;;20.31;100.00;99452.97;5013203;28;20041;-93
2023/07/30 00:31:30;;;;;;;0.15;0.15;;;;;;;20.32;100.00;99446.06;5004625;28;20030;-93
2023/07/30 00:33:56;;;;;;;0.40;0.30;;;;;;;20.22;100.00;99422.25;5017668;28;20039;-94
2023/07/30 00:36:21;;;;;;;0.10;0.10;;;;;;;20.51;100.00;99462.38;5023162;28;20067;-91
2023/07/30 00:38:47;;;;;;;0.65;0.65;;;;;;;20.39;100.00;99428.63;5024629;28;20061;-93
2023/07/30 00:41:13;;;;;;;0.30;0.28;;;;;;;20.35;100.00;99418.91;5004402;28;20112;-91
2023/07/30 00:43:39;;;;;;;1.40;0.40;;;;;;;20.24;100.00;99407.66;5002883;28;20038;-93
2023/07/30 00:46:05;;;;;;;0.17;0.17;;;;;;;20.28;100.00;99397.66;5038912;28;20423;-93
2023/07/30 00:48:31;;;;;;;0.22;0.22;;;;;;;20.28;100.00;99406.09;5022406;28;20052;-93
2023/07/30 00:50:58;;;;;;;0.52;0.40;;;;;;;20.26;100.00;99408.66;4999205;28;20030;-93
2023/07/30 00:53:24;;;;;;;0.65;0.65;;;;;;;20.59;100.00;99440.81;4992639;28;20045;-92
2023/07/30 00:55:49;;;;;;;0.43;0.43;;;;;;;20.52;100.00;99433.69;5001263;28;20022;-93
2023/07/30 00:58:16;;;;;;;0.20;0.20;;;;;;;20.39;100.00;99420.16;5004298;28;20125;-92
2023/07/30 01:08:49;;;;;;;0.55;0.22;;;;;;;20.15;100.00;99422.78;5002764;28;20471;-94
2023/07/30 01:11:15;;;;;;;0.30;0.30;;;;;;;20.25;100.00;99443.75;4971597;28;20043;-94
2023/07/30 01:13:41;;;;;;;0.32;0.30;;;;;;;20.09;100.00;99427.69;4985497;28;20041;-94
2023/07/30 01:16:07;;;;;;;0.20;0.20;;;;;;;20.18;100.00;99447.09;5001495;28;20038;-94
2023/07/30 01:18:33;;;;;;;0.47;0.43;;;;;;;20.18;100.00;99443.53;5000411;28;20053;-95
2023/07/30 01:20:59;;;;;;;0.00;0.00;;;;;;;20.17;100.00;99442.78;4989355;28;20408;-94
2023/07/30 01:23:25;;;;;;;0.00;0.00;;;;;;;20.13;100.00;99431.00;4997656;28;20150;-94
2023/07/30 01:26:01;;;;;;;0.00;0.00;;;;;;;20.20;100.00;99447.34;4984785;28;20489;-94
2023/07/30 01:28:27;;;;;;;0.35;0.35;;;;;;;20.05;100.00;99417.97;4983967;28;20042;-94
2023/07/30 01:30:54;;;;;;;0.00;0.00;;;;;;;20.24;100.00;99447.84;4987142;28;20041;-94
2023/07/30 01:33:20;;;;;;;3.20;1.65;;;;;;;20.23;100.00;99457.59;4984919;28;20038;-94
2023/07/30 01:35:45;;;;;;;0.45;0.28;;;;;;;20.09;100.00;99441.78;4985771;28;20038;-93
2023/07/30 01:38:12;;;;;;;0.52;0.52;;;;;;;20.12;100.00;99446.38;4984551;28;20521;-94
2023/07/30 01:40:38;;;;;;;0.15;0.05;;;;;;;20.09;100.00;99438.19;4985709;28;20026;-94
2023/07/30 01:43:03;;;;;;;0.10;0.10;;;;;;;20.13;100.00;99442.28;5005164;28;20654;-94
2023/07/30 01:45:29;;;;;;;0.00;0.00;;;;;;;20.12;100.00;99443.56;5006419;28;20109;-94
2023/07/30 01:47:54;;;;;;;0.30;0.30;;;;;;;20.14;100.00;99443.03;4987137;28;20054;-94
2023/07/30 01:50:20;;;;;;;0.20;0.20;;;;;;;20.18;100.00;99449.91;4992172;28;20029;-94
2023/07/30 01:52:45;;;;;;;0.00;0.00;;;;;;;20.11;100.00;99433.56;4990879;28;20536;-93
2023/07/30 01:55:13;;;;;;;0.00;0.00;;;;;;;20.13;100.00;99450.72;4974515;28;20048;-94
2023/07/30 01:57:39;;;;;;;0.10;0.10;;;;;;;20.03;100.00;99449.47;5005997;28;20454;-94
2023/07/30 02:00:05;;;;;;;0.10;0.10;;;;;;;20.16;100.00;99463.75;4974293;28;20045;-94
2023/07/30 02:02:31;;;;;;;0.00;0.00;;;;;;;20.17;100.00;99459.66;4963924;28;20579;-93
2023/07/30 02:04:56;;;;;;;0.32;0.32;;;;;;;20.15;100.00;99462.22;4970963;28;20038;-94
2023/07/30 02:07:22;;;;;;;0.47;0.30;;;;;;;20.08;100.00;99468.38;4971138;28;20049;-93
2023/07/30 02:09:47;;;;;;;0.20;0.20;;;;;;;20.12;100.00;99468.13;4956323;28;20109;-94
2023/07/30 02:12:13;;;;;;;0.80;0.70;;;;;;;20.08;100.00;99457.13;4972992;28;20054;-94
2023/07/30 02:14:38;;;;;;;0.77;0.60;;;;;;;20.07;100.00;99461.22;4970680;28;20085;-94
2023/07/30 02:17:04;;;;;;;0.10;0.10;;;;;;;20.05;100.00;99455.34;4954354;28;20673;-93
2023/07/30 02:19:30;;;;;;;0.52;0.30;;;;;;;20.05;100.00;99468.66;4983882;28;20042;-94
2023/07/30 02:21:56;;;;;;;0.30;0.30;;;;;;;20.01;100.00;99460.47;4989701;28;20042;-95
2023/07/30 02:24:21;;;;;;;0.10;0.10;;;;;;;19.94;100.00;99455.34;4973465;28;20443;-94
2023/07/30 02:26:48;;;;;;;0.30;0.30;;;;;;;20.05;100.00;99472.25;4969111;28;20573;-94
2023/07/30 02:29:14;;;;;;;0.43;0.38;;;;;;;20.05;100.00;99466.63;4957067;28;20069;-94
2023/07/30 02:31:39;;;;;;;0.00;0.00;;;;;;;19.78;100.00;99439.28;4989489;28;20252;-93
2023/07/30 02:34:05;;;;;;;0.75;0.28;;;;;;;19.98;100.00;99467.13;4972506;28;20036;-93
2023/07/30 02:36:30;;;;;;;0.10;0.10;;;;;;;19.94;100.00;99480.69;4971547;28;20048;-94
2023/07/30 02:38:56;;;;;;;0.20;0.20;;;;;;;19.68;100.00;99450.06;4972759;28;20030;-93
2023/07/30 02:41:21;;;;;;;0.57;0.47;;;;;;;19.79;100.00;99477.41;4973291;28;20121;-93
2023/07/30 02:43:47;;;;;;;0.17;0.13;;;;;;;19.73;100.00;99459.78;4988609;28;20034;-93
2023/07/30 02:46:12;;;;;;;0.35;0.17;;;;;;;19.83;100.00;99478.69;4970232;28;20132;-93
2023/07/30 02:48:38;;;;;;;0.08;0.08;;;;;;;19.84;100.00;99490.69;4965343;28;20041;-93
2023/07/30 02:51:03;;;;;;;0.00;0.00;;;;;;;19.74;100.00;99475.34;4989758;28;20034;-94
2023/07/30 02:53:29;;;;;;;0.50;0.17;;;;;;;19.77;100.00;99488.41;4989085;28;20030;-93
2023/07/30 02:55:55;;;;;;;0.55;0.55;;;;;;;19.71;100.00;99468.72;4969906;28;21515;-94
2023/07/30 02:58:20;;;;;;;0.13;0.13;;;;;;;19.74;100.00;99481.75;4987191;28;20516;-94
2023/07/30 03:00:46;;;;;;;0.20;0.20;;;;;;;19.49;100.00;99441.34;4957131;28;20027;-94
2023/07/30 03:03:11;;;;;;;0.10;0.10;;;;;;;19.66;100.00;99485.59;4967111;28;20041;-93
2023/07/30 03:05:37;;;;;;;0.20;0.20;;;;;;;19.59;100.00;99483.31;4987869;28;20061;-95
2023/07/30 03:08:02;;;;;;;0.20;0.20;;;;;;;19.49;100.00;99475.13;4966926;28;20540;-93
2023/07/30 03:10:28;;;;;;;0.25;0.20;;;;;;;19.60;100.00;99496.88;4988635;28;20118;-94
2023/07/30 03:12:54;;;;;;;0.28;0.20;;;;;;;19.35;100.00;99456.44;4956302;28;20038;-94
2023/07/30 03:15:20;;;;;;;0.32;0.10;;;;;;;19.50;100.00;99476.66;4980652;28;21260;-93
2023/07/30 03:17:45;;;;;;;0.10;0.10;;;;;;;19.46;100.00;99476.13;4953430;28;20404;-94
2023/07/30 03:20:11;;;;;;;0.20;0.20;;;;;;;19.49;100.00;99483.56;4984352;28;20706;-94
2023/07/30 03:22:37;;;;;;;0.35;0.15;;;;;;;19.48;100.00;99484.84;4988665;28;20084;-93
2023/07/30 03:25:03;;;;;;;0.10;0.10;;;;;;;19.45;100.00;99482.28;4967837;28;20109;-94
2023/07/30 03:27:29;;;;;;;0.38;0.30;;;;;;;19.31;100.00;99469.97;4970451;28;20038;-94
2023/07/30 03:29:55;;;;;;;0.00;0.00;;;;;;;19.44;100.00;99483.56;4972727;28;20033;-93
2023/07/30 03:32:20;;;;;;;0.17;0.17;;;;;;;19.34;100.00;99468.19;4954986;28;20155;-95
2023/07/30 03:34:46;;;;;;;0.52;0.30;;;;;;;19.43;100.00;99468.75;4966825;28;20409;-93
2023/07/30 03:37:11;;;;;;;2.20;0.40;;;;;;;19.44;100.00;99475.13;4956004;28;20042;-94
2023/07/30 03:39:37;;;;;;;2.13;1.17;;;;;;;19.54;100.00;99482.78;4955223;28;20201;-93
2023/07/30 03:42:02;;;;;;;0.30;0.25;;;;;;;19.59;100.00;99478.44;4971649;28;20038;-94
2023/07/30 03:44:28;;;;;;;0.35;0.35;;;;;;;19.48;100.00;99462.34;4988152;28;20450;-93
2023/07/30 03:46:53;;;;;;;0.75;0.65;;;;;;;19.48;100.00;99467.97;4954627;28;20038;-93
2023/07/30 03:49:19;;;;;;;0.35;0.22;;;;;;;19.43;100.00;99465.91;4970115;28;20395;-94
2023/07/30 03:51:45;;;;;;;0.38;0.38;;;;;;;19.44;100.00;99466.69;4988544;28;20045;-94
2023/07/30 03:54:10;;;;;;;0.17;0.17;;;;;;;19.40;100.00;99460.53;4946634;28;20381;-94
2023/07/30 03:56:36;;;;;;;0.98;0.32;;;;;;;19.50;100.00;99475.88;4970307;28;20034;-94
2023/07/30 03:59:01;;;;;;;0.20;0.15;;;;;;;19.46;100.00;99466.94;4969828;28;20026;-93
2023/07/30 04:01:28;;;;;;;0.65;0.20;;;;;;;19.35;100.00;99458.47;4968707;28;20031;-93
2023/07/30 04:03:54;;;;;;;0.13;0.13;;;;;;;19.52;100.00;99487.41;4969121;28;20033;-93
2023/07/30 04:06:20;;;;;;;0.50;0.47;;;;;;;19.55;100.00;99487.16;4970269;28;20486;-94
2023/07/30 04:08:45;;;;;;;0.10;0.10;;;;;;;19.51;100.00;99489.44;4955347;28;20066;-94
2023/07/30 04:11:10;;;;;;;0.52;0.52;;;;;;;19.48;100.00;99490.47;4958315;28;20514;-93
2023/07/30 04:13:36;;;;;;;0.28;0.28;;;;;;;19.51;100.00;99497.13;4984455;28;20529;-94
2023/07/30 04:16:02;;;;;;;0.28;0.28;;;;;;;19.44;100.00;99484.34;4986583;28;20038;-93
2023/07/30 04:18:27;;;;;;;0.40;0.40;;;;;;;19.53;100.00;99495.31;4972123;28;20073;-94
2023/07/30 04:20:56;;;;;;;0.10;0.10;;;;;;;19.34;100.00;99466.13;4970664;28;20419;-93
2023/07/30 04:23:24;;;;;;;0.30;0.30;;;;;;;19.45;100.00;99485.84;4956407;28;20022;-93
2023/07/30 04:25:50;;;;;;;0.00;0.00;;;;;;;19.38;100.00;99497.59;5003250;28;20049;-93
2023/07/30 04:28:16;;;;;;;0.30;0.30;;;;;;;19.28;100.00;99513.19;4953653;28;20038;-93
2023/07/30 04:30:44;;;;;;;0.35;0.35;;;;;;;19.26;100.00;99507.28;4955688;28;20050;-93
2023/07/30 04:33:14;;;;;;;0.00;0.00;;;;;;;19.25;100.00;99511.38;4969895;28;20121;-93
2023/07/30 04:35:40;;;;;;;0.52;0.47;;;;;;;19.24;100.00;99515.47;4968658;28;21140;-93
2023/07/30 04:38:06;;;;;;;0.40;0.40;;;;;;;19.21;100.00;99501.69;4955083;28;20049;-94
2023/07/30 04:40:32;;;;;;;0.32;0.32;;;;;;;19.26;100.00;99529.78;4965929;28;20043;-93
2023/07/30 04:42:57;;;;;;;0.00;0.00;;;;;;;19.20;100.00;99531.06;4953418;28;20042;-93
2023/07/30 04:45:23;;;;;;;1.55;0.88;;;;;;;19.17;100.00;99523.66;4969045;28;20371;-93
2023/07/30 04:47:50;;;;;;;0.17;0.17;;;;;;;19.26;100.00;99526.19;4968992;28;20034;-94
2023/07/30 04:50:16;;;;;;;0.30;0.30;;;;;;;19.17;100.00;99515.22;4953507;28;20120;-94
2023/07/30 04:52:42;;;;;;;0.25;0.20;;;;;;;19.15;100.00;99512.91;4986598;28;20026;-92
2023/07/30 04:55:07;;;;;;;0.55;0.35;;;;;;;19.15;100.00;99507.28;4971620;28;20030;-91
2023/07/30 04:57:33;;;;;;;0.28;0.20;;;;;;;19.15;100.00;99506.50;4985581;28;20043;-92
2023/07/30 04:59:59;;;;;;;0.60;0.60;;;;;;;19.05;100.00;99505.97;4962331;28;20164;-93
2023/07/30 05:02:24;;;;;;;0.73;0.20;;;;;;;18.96;100.00;99509.03;4967643;28;20034;-93
2023/07/30 05:04:50;;;;;;;0.10;0.10;;;;;;;19.01;100.00;99516.69;4953504;28;20034;-93
2023/07/30 05:07:16;;;;;;;0.30;0.30;;;;;;;19.03;100.00;99528.97;4952670;28;20042;-92
2023/07/30 05:09:41;;;;;;;0.75;0.50;;;;;;;18.97;100.00;99527.41;4951389;28;20042;-94
2023/07/30 05:12:07;;;;;;;0.00;0.00;;;;;;;18.91;100.00;99526.66;4975513;28;20493;-92
2023/07/30 05:14:33;;;;;;;0.38;0.38;;;;;;;19.06;100.00;99546.88;4986834;28;20534;-91
2023/07/30 05:16:58;;;;;;;0.17;0.17;;;;;;;18.92;100.00;99533.81;4962092;28;20027;-93
2023/07/30 05:19:47;;;;;;;1.13;1.02;;;;;;;18.97;100.00;99569.56;4962861;28;20427;-94
2023/07/30 05:22:15;;;;;;;0.05;0.03;;;;;;;18.83;100.00;99548.84;4985324;28;20088;-93
2023/07/30 05:24:41;;;;;;;0.30;0.30;;;;;;;18.94;100.00;99559.34;4990332;28;20181;-94
2023/07/30 05:27:07;;;;;;;0.82;0.60;;;;;;;18.90;100.00;99558.81;4957103;28;20130;-93
2023/07/30 05:29:32;;;;;;;0.15;0.15;;;;;;;19.09;100.00;99559.91;4954788;28;20034;-93
2023/07/30 05:32:00;;;;;;;0.17;0.17;;;;;;;19.03;100.00;99545.06;4970494;28;20026;-93
2023/07/30 05:34:25;;;;;;;3.20;0.43;;;;;;;19.10;100.00;99572.69;4974078;28;20437;-94
2023/07/30 05:36:51;;;;;;;0.45;0.35;;;;;;;19.10;100.00;99581.13;4968037;28;20035;-94
2023/07/30 05:39:16;;;;;;;0.10;0.10;;;;;;;19.00;100.00;99552.50;4970116;28;20034;-94
2023/07/30 05:41:42;;;;;;;0.10;0.10;;;;;;;19.07;100.00;99557.63;4954630;28;20043;-94
2023/07/30 05:44:07;;;;;;;0.20;0.20;;;;;;;19.06;100.00;99558.88;4965398;28;20210;-94
2023/07/30 05:46:33;;;;;;;0.20;0.20;;;;;;;19.22;100.00;99579.88;4954467;28;20034;-94
2023/07/30 05:48:58;;;;;;;0.75;0.75;;;;;;;19.01;100.00;99533.56;4967971;28;20043;-94
2023/07/30 05:51:24;;;;;;;0.13;0.13;;;;;;;19.10;100.00;99553.00;4955879;28;20320;-94
2023/07/30 05:53:49;;;;;;;0.10;0.10;;;;;;;19.21;100.00;99566.34;4970143;28;20038;-93
2023/07/30 05:56:18;;;;;;;0.35;0.35;;;;;;;19.13;100.00;99559.69;4974434;28;20105;-93
2023/07/30 05:58:44;;;;;;;0.38;0.35;;;;;;;19.26;100.00;99569.16;4955552;28;20038;-93
2023/07/30 06:01:09;;;;;;;3.30;1.20;;;;;;;19.20;100.00;99559.94;4958858;28;20034;-93
2023/07/30 06:03:35;;;;;;;0.45;0.28;;;;;;;19.25;100.00;99567.59;4973519;28;20212;-93
2023/07/30 06:06:01;;;;;;;0.55;0.43;;;;;;;19.28;100.00;99566.63;4990632;28;20026;-94
2023/07/30 06:08:27;;;;;;;0.10;0.10;;;;;;;19.27;100.00;99565.06;4958768;28;20058;-94
2023/07/30 06:10:52;;;;;;;0.28;0.17;;;;;;;19.37;100.00;99585.31;4974565;28;20050;-93
2023/07/30 06:13:18;;;;;;;0.47;0.38;;;;;;;19.43;100.00;99586.88;4976652;28;20034;-95
2023/07/30 06:15:44;;;;;;;0.45;0.45;;;;;;;19.44;100.00;99585.59;4974148;28;20030;-93
2023/07/30 06:18:12;;;;;;;0.70;0.70;;;;;;;19.54;100.00;99617.81;4971501;28;20043;-94
2023/07/30 06:20:38;;;;;;;0.22;0.22;;;;;;;19.52;100.00;99606.31;4960092;28;20478;-94
2023/07/30 06:23:03;;;;;;;0.60;0.57;;;;;;;19.51;100.00;99601.97;4959051;28;20120;-94
2023/07/30 06:25:30;;;;;;;0.68;0.68;;;;;;;19.58;100.00;99611.16;4970399;28;21317;-93
2023/07/30 06:27:58;;;;;;;0.35;0.35;;;;;;;19.61;100.00;99605.31;4970503;28;20138;-92
2023/07/30 06:30:27;;;;;;;0.55;0.55;;;;;;;19.49;100.00;99584.06;4973064;28;20101;-93
2023/07/30 06:32:52;;;;;;;0.38;0.20;;;;;;;19.57;100.00;99584.34;4954391;28;20089;-93
2023/07/30 06:35:18;;;;;;;1.08;0.98;;;;;;;19.37;100.00;99574.06;4985984;28;20026;-94
2023/07/30 06:37:43;;;;;;;0.28;0.28;;;;;;;19.42;100.00;99596.56;5004070;28;20445;-94
2023/07/30 06:40:09;;;;;;;0.10;0.10;;;;;;;19.40;100.00;99589.91;4968791;28;20459;-94
2023/07/30 06:42:35;;;;;;;0.32;0.10;;;;;;;19.34;100.00;99587.06;4989970;28;20030;-94
2023/07/30 06:45:00;;;;;;;1.15;0.50;;;;;;;19.39;100.00;99597.56;4972881;28;20448;-94
2023/07/30 06:47:26;;;;;;;1.23;0.75;;;;;;;19.45;100.00;99597.63;4967526;28;20453;-93
2023/07/30 06:49:51;;;;;;;0.13;0.13;;;;;;;19.39;100.00;99583.50;4987609;28;20556;-94
2023/07/30 06:52:17;;;;;;;0.30;0.30;;;;;;;19.44;100.00;99584.81;4989995;28;20038;-94
2023/07/30 06:54:42;;;;;;;0.15;0.15;;;;;;;19.48;100.00;99583.31;4960427;28;20038;-94
2023/07/30 06:57:08;;;;;;;0.15;0.15;;;;;;;19.30;100.00;99569.66;4974878;28;20057;-95
2023/07/30 06:59:34;;;;;;;0.73;0.63;;;;;;;19.48;100.00;99591.75;4974215;28;20088;-93
2023/07/30 07:01:59;;;;;;;0.32;0.20;;;;;;;19.43;100.00;99589.69;4972208;28;20053;-93
2023/07/30 07:04:25;;;;;;;0.00;0.00;;;;;;;19.41;100.00;99602.69;4973734;28;20027;-92
2023/07/30 07:07:04;;;;;;;0.38;0.38;;;;;;;19.44;100.00;99601.69;4967609;28;20061;-93
2023/07/30 07:09:36;;;;;;;0.35;0.35;;;;;;;19.48;100.00;99605.81;4983395;28;20038;-94
2023/07/30 07:12:03;;;;;;;0.28;0.28;;;;;;;19.50;100.00;99599.66;4965226;28;20034;-94
2023/07/30 07:14:28;;;;;;;0.20;0.20;;;;;;;19.53;100.00;99599.41;4963830;28;20033;-93
2023/07/30 07:16:57;;;;;;;0.15;0.15;;;;;;;19.63;100.00;99607.59;4969904;28;20022;-92
2023/07/30 07:19:23;;;;;;;0.63;0.47;;;;;;;19.54;100.00;99594.53;4950991;28;20037;-94
2023/07/30 07:21:48;;;;;;;0.35;0.35;;;;;;;19.71;100.00;99611.44;4967458;28;20035;-93
2023/07/30 07:24:14;;;;;;;0.10;0.08;;;;;;;19.59;100.00;99607.09;4953567;28;20086;-93
2023/07/30 07:26:39;;;;;;;0.63;0.35;;;;;;;19.65;100.00;99610.69;4970330;28;20544;-93
2023/07/30 07:29:05;;;;;;;0.22;0.22;;;;;;;19.75;100.00;99621.19;4951447;28;20517;-93
2023/07/30 07:31:33;;;;;;;0.35;0.30;;;;;;;19.76;100.00;99627.56;4968870;28;20046;-93
2023/07/30 07:33:59;;;;;;;0.65;0.40;;;;;;;19.66;100.00;99609.38;4966838;28;20019;-93
2023/07/30 07:36:27;;;;;;;0.20;0.20;;;;;;;19.54;100.00;99595.31;4946103;28;20039;-94
2023/07/30 07:38:55;;;;;;;0.10;0.10;;;;;;;19.51;100.00;99596.34;4963392;28;20486;-93
2023/07/30 07:41:21;;;;;;;0.35;0.35;;;;;;;19.68;100.00;99618.09;4968020;28;20038;-92
2023/07/30 07:43:47;;;;;;;0.20;0.20;;;;;;;19.66;100.00;99612.19;4966801;28;20066;-92
2023/07/30 07:46:13;;;;;;;0.32;0.32;;;;;;;19.55;100.00;99608.13;4964869;28;20049;-92
2023/07/30 07:48:43;;;;;;;0.55;0.47;;;;;;;19.53;100.00;99590.22;4979234;28;20030;-92
2023/07/30 07:51:10;;;;;;;0.50;0.43;;;;;;;19.48;100.00;99590.97;4980629;28;20042;-94
2023/07/30 07:53:36;;;;;;;0.52;0.28;;;;;;;19.39;100.00;99561.00;4961867;28;20030;-93
2023/07/30 07:56:02;;;;;;;0.05;0.05;;;;;;;19.57;100.00;99584.34;4957423;28;20407;-95
2023/07/30 07:58:28;;;;;;;0.20;0.20;;;;;;;19.72;100.00;99604.56;4971838;28;20045;-95
2023/07/30 08:00:57;;;;;;;0.38;0.28;;;;;;;19.64;100.00;99595.84;4953601;28;20033;-94
2023/07/30 08:03:23;;;;;;;0.22;0.22;;;;;;;19.64;100.00;99601.47;4972994;28;20049;-93
2023/07/30 08:05:49;;;;;;;0.20;0.20;;;;;;;19.62;100.00;99600.44;4958046;28;20034;-93
2023/07/30 08:08:15;;;;;;;0.45;0.38;;;;;;;19.45;100.00;99578.66;4969385;28;20081;-94
2023/07/30 08:10:43;;;;;;;0.30;0.30;;;;;;;19.31;100.00;99559.97;4949947;28;20034;-92
2023/07/30 08:13:12;;;;;;;0.20;0.20;;;;;;;19.60;100.00;99595.34;4970879;28;20035;-92
2023/07/30 08:15:38;;;;;;;2.53;0.38;;;;;;;19.61;100.00;99598.91;4989164;28;20034;-93
2023/07/30 08:18:03;;;;;;;0.10;0.10;;;;;;;19.67;100.00;99603.25;4986789;28;20088;-92
2023/07/30 08:20:29;;;;;;;0.40;0.40;;;;;;;19.68;100.00;99609.66;4949772;28;20090;-93
2023/07/30 08:22:54;;;;;;;0.20;0.20;;;;;;;19.81;100.00;99624.00;4984701;28;20034;-94
2023/07/30 08:25:20;;;;;;;0.45;0.43;;;;;;;19.83;100.00;99632.69;4982982;28;20179;-93
2023/07/30 08:27:46;;;;;;;0.20;0.20;;;;;;;19.72;100.00;99604.56;4965583;28;20047;-92
2023/07/30 08:30:12;;;;;;;0.57;0.50;;;;;;;19.94;100.00;99635.50;4965168;28;20043;-92
2023/07/30 08:32:37;;;;;;;0.22;0.22;;;;;;;19.94;100.00;99627.06;4960957;28;20030;-93
2023/07/30 08:35:04;;;;;;;0.98;0.80;;;;;;;20.02;100.00;99644.97;4969833;28;20046;-92
2023/07/30 08:37:30;;;;;;;0.52;0.52;;;;;;;19.86;100.00;99620.41;4972002;28;20026;-92
2023/07/30 08:39:55;;;;;;;0.17;0.17;;;;;;;19.92;100.00;99607.13;4988390;28;20462;-92
2023/07/30 08:42:22;;;;;;;0.35;0.35;;;;;;;20.02;100.00;99606.34;4974450;28;20561;-92
2023/07/30 08:44:48;;;;;;;0.00;0.00;;;;;;;20.12;100.00;99614.53;4975778;28;20030;-93
2023/07/30 08:47:13;;;;;;;0.57;0.55;;;;;;;20.07;100.00;99598.41;4971699;28;20545;-92
2023/07/30 08:49:39;;;;;;;0.43;0.43;;;;;;;20.21;100.00;99603.78;4989727;28;20027;-93
2023/07/30 08:52:08;;;;;;;0.10;0.10;;;;;;;20.36;100.00;99611.97;4972260;28;20043;-92
2023/07/30 08:54:34;;;;;;;0.35;0.30;;;;;;;20.57;100.00;99626.53;4966646;28;20114;-93
2023/07/30 08:57:00;;;;;;;0.43;0.20;;;;;;;20.62;100.00;99614.50;4955210;28;20053;-91
2023/07/30 08:59:27;;;;;;;0.08;0.08;;;;;;;20.80;100.00;99625.19;4968580;28;20462;-94
2023/07/30 09:01:53;;;;;;;0.30;0.30;;;;;;;20.98;100.00;99633.09;4967749;28;20137;-93
2023/07/30 09:04:19;;;;;;;0.17;0.17;;;;;;;20.99;100.00;99623.31;4983622;28;20045;-91
2023/07/30 09:06:49;;;;;;;0.10;0.10;;;;;;;21.04;100.00;99633.81;4970812;28;20050;-92
2023/07/30 09:09:15;;;;;;;0.63;0.30;;;;;;;21.11;100.00;99643.81;4970496;28;20137;-93
2023/07/30 09:11:43;;;;;;;0.13;0.13;;;;;;;21.12;100.00;99651.75;4991496;28;20104;-93
2023/07/30 09:14:11;;;;;;;0.28;0.28;;;;;;;21.10;100.00;99645.09;4964912;28;20166;-92
2023/07/30 09:16:36;;;;;;;0.65;0.35;;;;;;;21.16;100.00;99649.44;4989816;28;20125;-93
2023/07/30 09:19:03;;;;;;;0.63;0.60;;;;;;;21.05;100.00;99640.22;4955679;28;20486;-93
2023/07/30 09:21:33;;;;;;;0.03;0.03;;;;;;;21.18;100.00;99651.75;4987607;28;20061;-91
2023/07/30 09:24:05;;;;;;;0.30;0.30;;;;;;;21.12;100.00;99648.94;4971398;28;20041;-91
2023/07/30 09:26:41;;;;;;;1.77;0.45;;;;;;;21.07;100.00;99646.88;4987469;28;20042;-92
2023/07/30 09:29:10;;;;;;;0.22;0.22;;;;;;;21.20;100.00;99655.56;4988770;28;20046;-92
2023/07/30 09:31:51;;;;;;;0.43;0.43;;;;;;;21.15;100.00;99664.81;4988798;28;20438;-94
2023/07/30 09:34:18;;;;;;;0.15;0.15;;;;;;;21.09;100.00;99655.59;4980706;28;20030;-92
2023/07/30 09:36:48;;;;;;;0.28;0.28;;;;;;;20.83;100.00;99604.41;4973334;28;20085;-93
2023/07/30 09:39:24;;;;;;;0.63;0.63;;;;;;;21.14;100.00;99629.47;4987274;28;20058;-92
2023/07/30 09:42:00;;;;;;;0.10;0.10;;;;;;;21.22;100.00;99636.09;4987882;28;20116;-93
2023/07/30 09:44:25;;;;;;;0.65;0.38;;;;;;;21.30;100.00;99622.19;4968809;28;20228;-92
2023/07/30 09:46:51;;;;;;;0.22;0.20;;;;;;;21.35;100.00;99605.22;4988918;28;20601;-93
2023/07/30 09:49:18;;;;;;;0.00;0.00;;;;;;;21.50;100.00;99621.06;4952367;28;20050;-92
2023/07/30 09:51:43;;;;;;;0.45;0.45;;;;;;;21.51;100.00;99620.53;4986202;28;20054;-92
2023/07/30 09:54:13;;;;;;;0.40;0.40;;;;;;;21.50;100.00;99623.88;4954324;28;20128;-92
2023/07/30 09:56:40;;;;;;;0.55;0.35;;;;;;;21.54;100.00;99615.91;4974392;28;20046;-93
2023/07/30 09:59:06;;;;;;;0.32;0.20;;;;;;;21.73;100.00;99620.38;4987508;28;20555;-93
2023/07/30 10:01:37;;;;;;;0.55;0.55;;;;;;;21.99;100.00;99611.50;4966109;28;20084;-93
2023/07/30 10:04:07;;;;;;;0.10;0.10;;;;;;;22.56;100.00;99613.28;4976662;28;20054;-94
2023/07/30 10:06:36;;;;;;;0.25;0.25;;;;;;;23.20;100.00;99603.03;4986042;28;20066;-93
2023/07/30 10:09:02;;;;;;;0.10;0.10;;;;;;;23.87;100.00;99593.56;5000320;28;20084;-92
2023/07/30 10:11:28;;;;;;;0.57;0.40;;;;;;;24.53;100.00;99610.72;4978559;28;20503;-93
2023/07/30 10:13:54;;;;;;;0.35;0.17;;;;;;;25.06;100.00;99603.78;4971070;28;20045;-93
2023/07/30 10:16:25;;;;;;;0.17;0.17;;;;;;;25.68;100.00;99603.16;4985711;28;20039;-93
2023/07/30 10:18:57;;;;;;;0.10;0.10;;;;;;;26.35;100.00;99604.38;4965796;28;20105;-93
2023/07/30 10:21:26;;;;;;;0.10;0.10;;;;;;;26.68;100.00;99599.88;4972331;28;20108;-94
2023/07/30 10:24:03;;;;;;;0.10;0.10;;;;;;;27.08;100.00;99595.38;4988373;28;20230;-93
2023/07/30 10:26:35;;;;;;;0.20;0.20;;;;;;;26.79;100.00;99588.94;4971520;28;20046;-94
2023/07/30 10:29:10;;;;;;;0.52;0.47;;;;;;;26.66;100.00;99597.59;4970703;28;20394;-93
2023/07/30 10:31:47;;;;;;;0.63;0.38;;;;;;;26.81;100.00;99594.81;4984243;28;20038;-92
2023/07/30 10:34:25;;;;;;;0.10;0.10;;;;;;;26.84;100.00;99590.91;4970899;28;20034;-92
2023/07/30 10:36:52;;;;;;;0.60;0.60;;;;;;;26.73;100.00;99591.19;4969382;28;20050;-93
2023/07/30 10:39:25;;;;;;;0.45;0.43;;;;;;;26.63;100.00;99593.03;4988287;28;20038;-92
2023/07/30 10:41:55;;;;;;;0.30;0.30;;;;;;;26.82;100.00;99587.81;4952885;28;20144;-92
2023/07/30 10:44:33;;;;;;;0.28;0.28;;;;;;;27.06;100.00;99577.34;4985903;28;20081;-92
2023/07/30 10:47:00;;;;;;;0.20;0.20;;;;;;;27.29;100.00;99583.91;4981252;28;20081;-92
2023/07/30 10:49:26;;;;;;;0.30;0.30;;;;;;;27.42;100.00;99575.19;4983718;28;20041;-92
2023/07/30 10:51:54;;;;;;;0.30;0.30;;;;;;;27.57;100.00;99574.50;4961574;28;20466;-92
2023/07/30 10:54:19;;;;;;;0.20;0.20;;;;;;;27.25;100.00;99577.81;4968655;28;20043;-92
2023/07/30 10:56:45;;;;;;;0.32;0.32;;;;;;;27.24;100.00;99562.03;4986285;28;20081;-92
2023/07/30 10:59:13;;;;;;;0.50;0.50;;;;;;;27.08;94.00;99580.41;4968631;28;20114;-94
2023/07/30 11:01:43;;;;;;;0.52;0.45;;;;;;;26.64;100.00;99559.66;4992701;28;20022;-95
2023/07/30 11:04:15;;;;;;;0.50;0.50;;;;;;;26.74;97.63;99575.63;4979285;28;20043;-93
2023/07/30 11:06:49;;;;;;;0.15;0.15;;;;;;;26.75;84.60;99602.78;4986282;28;20066;-93
2023/07/30 11:09:20;;;;;;;2.70;0.63;;;;;;;26.83;88.43;99597.88;4984952;28;20117;-91
2023/07/30 11:11:46;;;;;;;0.28;0.28;;;;;;;26.90;84.73;99577.28;4988905;28;20031;-92
2023/07/30 11:14:19;;;;;;;0.17;0.17;;;;;;;27.04;84.51;99597.06;4963288;28;20038;-91
2023/07/30 11:16:58;;;;;;;0.75;0.38;;;;;;;26.98;82.62;99554.53;4981280;28;20033;-92
2023/07/30 11:19:27;;;;;;;1.30;1.20;;;;;;;27.35;82.83;99581.63;4966950;28;20450;-91
2023/07/30 11:21:54;;;;;;;0.17;0.17;;;;;;;27.24;73.96;99564.91;4981293;28;20125;-92
2023/07/30 11:24:21;;;;;;;0.70;0.70;;;;;;;27.32;77.17;99568.53;4970583;28;20038;-90
2023/07/30 11:26:57;;;;;;;0.45;0.43;;;;;;;27.85;78.77;99579.31;4954618;28;20022;-90
2023/07/30 11:29:23;;;;;;;0.43;0.38;;;;;;;27.88;69.23;99569.59;4992781;28;20038;-92
2023/07/30 11:31:49;;;;;;;0.32;0.32;;;;;;;28.03;78.66;99561.06;4972659;28;20123;-89
2023/07/30 11:34:15;;;;;;;0.10;0.10;;;;;;;28.29;75.72;99563.56;4984886;28;20034;-91